Time;durP1;ratioP1;P1;durP2;ratioP2;P2;SDS_P1;SDS_P2;PMS_P1;PMS_P2;Temp;Humidity;BMP_temperature;BMP_pressure;BME280_temperature;BME280_humidity;BME280_pressure;Samples;Min_cycle;Max_cycle;Signal;HPM_P1;HPM_P2
2021/01/26 00:00:48;;;;;;;23.77;12.23;;;;;;;0.51;87.83;98854.99;1647064;85;21223;-68
2021/01/26 00:03:14;;;;;;;21.80;12.20;;;;;;;0.54;87.97;98845.66;1647514;85;21297;-66
2021/01/26 00:05:41;;;;;;;23.37;12.37;;;;;;;0.62;87.97;98841.98;1644519;85;20983;-66
2021/01/26 00:08:06;;;;;;;24.77;12.47;;;;;;;0.57;88.12;98845.41;1646720;85;21258;-67
2021/01/26 00:10:32;;;;;;;22.43;13.43;;;;;;;0.53;88.03;98854.42;1647097;85;23505;-67
2021/01/26 00:12:58;;;;;;;22.43;12.93;;;;;;;0.72;87.59;98844.64;1646262;85;21657;-66
2021/01/26 00:15:24;;;;;;;26.43;14.03;;;;;;;0.75;87.00;98853.48;1646990;85;22487;-66
2021/01/26 00:17:49;;;;;;;23.27;13.10;;;;;;;0.67;87.33;98846.31;1645445;85;21038;-65
2021/01/26 00:20:16;;;;;;;24.53;13.47;;;;;;;0.62;87.10;98862.77;1645166;85;21126;-65
2021/01/26 00:22:42;;;;;;;28.07;12.73;;;;;;;0.63;87.23;98861.80;1645464;85;21255;-65
2021/01/26 00:25:10;;;;;;;23.20;13.45;;;;;;;0.71;87.56;98855.52;1645080;85;21263;-67
2021/01/26 00:27:36;;;;;;;30.15;14.65;;;;;;;0.67;87.20;98855.41;1619044;85;22120;-67
2021/01/26 00:30:06;;;;;;;25.03;14.07;;;;;;;0.67;87.34;98853.30;1645057;85;23767;-68
2021/01/26 00:32:32;;;;;;;26.87;15.05;;;;;;;0.71;87.26;98871.11;1647276;85;21191;-68
2021/01/26 00:34:58;;;;;;;29.67;14.60;;;;;;;0.62;87.32;98857.57;1641845;86;22917;-68
2021/01/26 00:37:24;;;;;;;25.77;14.83;;;;;;;0.57;87.63;98877.88;1643176;85;21237;-68
2021/01/26 00:39:49;;;;;;;27.40;15.97;;;;;;;0.64;88.04;98854.36;1646079;85;21195;-69
2021/01/26 00:42:15;;;;;;;31.87;17.60;;;;;;;0.64;88.27;98846.56;1645374;85;21035;-68
2021/01/26 00:44:41;;;;;;;31.20;16.30;;;;;;;0.57;88.51;98849.30;1618546;85;20966;-67
2021/01/26 00:47:06;;;;;;;31.27;17.07;;;;;;;0.56;88.70;98855.47;1644507;85;23059;-68
2021/01/26 00:49:32;;;;;;;31.53;18.37;;;;;;;0.49;89.16;98842.62;1642369;85;21048;-68
2021/01/26 00:51:58;;;;;;;38.50;20.10;;;;;;;0.56;89.49;98861.96;1644618;85;21307;-68
2021/01/26 00:54:24;;;;;;;37.07;19.43;;;;;;;0.50;89.80;98852.06;1643708;85;21511;-68
2021/01/26 00:56:49;;;;;;;35.37;19.23;;;;;;;0.50;90.19;98863.75;1643323;85;21022;-68
2021/01/26 00:59:15;;;;;;;39.50;20.43;;;;;;;0.46;90.21;98842.37;1642765;85;25831;-68
2021/01/26 01:01:41;;;;;;;41.90;20.60;;;;;;;0.48;90.53;98855.24;1643212;85;22261;-68
2021/01/26 01:04:07;;;;;;;36.03;18.63;;;;;;;0.49;90.45;98858.20;1643552;85;21485;-68
2021/01/26 01:06:32;;;;;;;35.30;19.50;;;;;;;0.55;90.71;98852.51;1644521;86;21063;-67
2021/01/26 01:08:58;;;;;;;42.37;20.60;;;;;;;0.41;91.10;98861.41;1643334;86;21081;-68
2021/01/26 01:11:24;;;;;;;40.50;22.13;;;;;;;0.55;91.28;98855.11;1646488;86;25898;-67
2021/01/26 01:13:49;;;;;;;42.13;20.83;;;;;;;0.58;91.24;98853.56;1641657;86;24321;-68
2021/01/26 01:16:15;;;;;;;40.87;22.20;;;;;;;0.56;91.28;98854.17;1644550;86;21334;-68
2021/01/26 01:18:41;;;;;;;45.93;22.93;;;;;;;0.54;91.52;98849.55;1644451;86;20942;-68
2021/01/26 01:21:06;;;;;;;42.87;22.13;;;;;;;0.54;91.39;98857.34;1644025;86;21055;-67
2021/01/26 01:23:32;;;;;;;41.63;21.87;;;;;;;0.45;91.82;98866.72;1642874;86;26843;-67
2021/01/26 01:26:00;;;;;;;37.40;19.30;;;;;;;0.49;91.92;98855.60;1647284;86;25182;-68
2021/01/26 01:28:26;;;;;;;37.67;20.48;;;;;;;0.40;92.18;98876.63;1643300;86;21640;-67
2021/01/26 01:30:57;;;;;;;42.75;21.55;;;;;;;0.43;92.13;98859.99;1645879;86;21200;-68
2021/01/26 01:33:20;;;;;;;39.80;21.77;;;;;;;0.44;92.37;98862.95;1657037;84;21237;-68
2021/01/26 01:35:45;;;;;;;40.93;22.20;;;;;;;0.40;92.42;98856.34;1667366;86;23911;-68
2021/01/26 01:38:11;;;;;;;42.23;22.10;;;;;;;0.41;92.04;98847.61;1666745;86;23245;-67
2021/01/26 01:40:37;;;;;;;43.67;23.33;;;;;;;0.42;91.94;98855.73;1666804;85;21265;-68
2021/01/26 01:43:02;;;;;;;45.10;23.53;;;;;;;0.43;92.11;98848.30;1666573;86;21707;-68
2021/01/26 01:45:28;;;;;;;44.70;23.20;;;;;;;0.45;91.97;98855.48;1667413;84;21653;-69
2021/01/26 01:48:01;;;;;;;46.83;23.40;;;;;;;0.41;91.89;98850.21;1666347;85;23446;-68
2021/01/26 01:50:44;;;;;;;42.95;22.90;;;;;;;0.39;91.84;98850.79;1666025;84;21198;-68
2021/01/26 01:53:21;;;;;;;44.65;22.50;;;;;;;0.37;91.83;98857.89;1666404;85;21663;-67
2021/01/26 01:55:55;;;;;;;53.98;24.60;;;;;;;0.42;91.79;98847.94;1667399;85;21233;-67
2021/01/26 01:58:25;;;;;;;44.42;22.85;;;;;;;0.46;91.77;98858.45;1667308;85;21248;-67
2021/01/26 02:00:56;;;;;;;40.45;20.68;;;;;;;0.49;91.44;98856.41;1667337;85;21181;-67
2021/01/26 02:03:25;;;;;;;44.93;23.00;;;;;;;0.46;91.33;98847.58;1667303;85;21209;-67
2021/01/26 02:05:54;;;;;;;41.75;22.60;;;;;;;0.45;91.51;98856.33;1666563;86;21249;-67
2021/01/26 02:08:35;;;;;;;49.15;24.72;;;;;;;0.40;91.34;98865.43;1667339;85;21213;-67
2021/01/26 02:11:01;;;;;;;49.48;24.27;;;;;;;0.37;91.70;98857.89;1667669;85;21246;-67
2021/01/26 02:13:27;;;;;;;46.40;24.32;;;;;;;0.41;91.66;98856.22;1667170;86;21237;-67
2021/01/26 02:15:56;;;;;;;48.50;24.03;;;;;;;0.38;91.53;98875.13;1667103;85;21315;-67
2021/01/26 02:18:54;;;;;;;53.00;25.90;;;;;;;0.33;91.85;98862.51;1668739;84;22199;-68
2021/01/26 02:22:06;;;;;;;47.90;24.45;;;;;;;0.32;91.75;98864.27;1666184;85;21198;-67
2021/01/26 02:25:01;;;;;;;50.73;24.15;;;;;;;0.43;91.69;98866.00;1667307;86;21584;-68
2021/01/26 02:28:12;;;;;;;47.98;24.65;;;;;;;0.50;91.57;98872.84;1666845;85;21638;-67
2021/01/26 02:30:58;;;;;;;47.10;23.30;;;;;;;0.46;91.71;98867.53;1666052;85;21257;-67
2021/01/26 02:34:02;;;;;;;50.78;25.15;;;;;;;0.43;91.68;98880.28;1662522;86;22116;-68
2021/01/26 02:37:15;;;;;;;51.70;26.17;;;;;;;0.43;91.87;98888.55;1641824;86;21608;-68
2021/01/26 02:40:03;;;;;;;50.30;25.00;;;;;;;0.45;91.82;98877.56;1645891;86;21147;-67
2021/01/26 02:42:43;;;;;;;50.10;25.02;;;;;;;0.49;91.84;98879.79;1643562;86;21208;-67
2021/01/26 02:45:33;;;;;;;45.38;23.95;;;;;;;0.53;91.97;98873.90;1647731;86;21681;-67
2021/01/26 02:48:11;;;;;;;54.15;26.90;;;;;;;0.51;91.73;98870.58;1645142;86;21677;-67
2021/01/26 02:51:17;;;;;;;53.17;25.57;;;;;;;0.56;91.82;98884.04;1643342;86;21233;-67
2021/01/26 02:53:57;;;;;;;53.90;25.85;;;;;;;0.42;92.06;98872.61;1646385;86;21266;-68
2021/01/26 02:56:55;;;;;;;52.75;27.17;;;;;;;0.46;92.26;98874.03;1641468;86;21226;-68
2021/01/26 02:59:32;;;;;;;47.95;25.32;;;;;;;0.55;92.13;98876.38;1643983;86;21195;-67
2021/01/26 03:02:22;;;;;;;50.90;26.62;;;;;;;0.51;92.07;98875.77;1640536;86;21620;-67
2021/01/26 03:04:58;;;;;;;53.15;27.58;;;;;;;0.56;92.19;98878.84;1640751;86;21638;-66
2021/01/26 03:07:24;;;;;;;50.60;26.05;;;;;;;0.59;92.16;98877.75;1644463;86;21222;-67
2021/01/26 03:09:52;;;;;;;51.00;27.03;;;;;;;0.55;91.90;98882.38;1643464;86;24898;-67
2021/01/26 03:12:26;;;;;;;51.85;26.85;;;;;;;0.49;92.13;98882.88;1643940;86;21246;-67
2021/01/26 03:15:03;;;;;;;54.33;26.02;;;;;;;0.62;91.92;98882.25;1624814;86;21580;-67
2021/01/26 03:17:36;;;;;;;49.98;25.37;;;;;;;0.52;91.96;98890.42;1645335;86;21254;-66
2021/01/26 03:20:28;;;;;;;46.35;25.40;;;;;;;0.52;92.10;98894.31;1642934;86;21219;-67
2021/01/26 03:22:58;;;;;;;52.60;27.22;;;;;;;0.51;92.24;98893.95;1637055;86;21332;-68
2021/01/26 03:25:25;;;;;;;49.58;27.62;;;;;;;0.47;92.56;98900.36;1646322;86;21215;-67
2021/01/26 03:27:53;;;;;;;48.42;25.88;;;;;;;0.47;92.47;98882.18;1646323;86;22349;-66
2021/01/26 03:30:22;;;;;;;48.70;26.25;;;;;;;0.45;92.58;98882.30;1645784;86;21236;-66
2021/01/26 03:32:50;;;;;;;53.33;28.23;;;;;;;0.44;92.70;98913.59;1644698;86;22364;-66
2021/01/26 03:35:17;;;;;;;46.70;26.05;;;;;;;0.41;92.88;98894.36;1621081;86;21164;-67
2021/01/26 03:37:47;;;;;;;49.35;26.15;;;;;;;0.47;92.85;98895.98;1641915;86;21584;-67
2021/01/26 03:40:13;;;;;;;49.27;25.70;;;;;;;0.41;92.76;98917.73;1646733;86;22294;-66
2021/01/26 03:42:38;;;;;;;48.78;26.50;;;;;;;0.43;92.88;98896.34;1645927;86;21741;-67
2021/01/26 03:45:06;;;;;;;49.13;27.33;;;;;;;0.44;92.99;98905.31;1642269;86;21508;-67
2021/01/26 03:47:56;;;;;;;50.95;27.73;;;;;;;0.45;92.90;98901.78;1646843;85;21574;-68
2021/01/26 03:50:27;;;;;;;48.10;25.88;;;;;;;0.44;93.19;98898.01;1647267;85;21182;-68
2021/01/26 03:53:22;;;;;;;53.48;27.07;;;;;;;0.40;92.84;98906.98;1642003;86;21183;-69
2021/01/26 03:56:02;;;;;;;48.60;26.57;;;;;;;0.39;92.94;98905.32;1643003;86;21227;-68
2021/01/26 03:59:00;;;;;;;49.33;26.73;;;;;;;0.42;92.96;98912.87;1644197;86;21208;-68
2021/01/26 04:01:40;;;;;;;49.73;25.72;;;;;;;0.42;93.01;98911.56;1643338;86;21231;-68
2021/01/26 04:04:17;;;;;;;52.05;27.50;;;;;;;0.47;92.85;98905.56;1643996;86;21211;-68
2021/01/26 04:06:52;;;;;;;48.10;25.52;;;;;;;0.44;93.08;98911.00;1641542;86;21352;-68
2021/01/26 04:09:23;;;;;;;50.50;27.00;;;;;;;0.29;93.27;98887.87;1644213;86;21283;-68
2021/01/26 04:12:00;;;;;;;49.80;27.32;;;;;;;0.34;93.23;98908.28;1646625;86;21162;-69
2021/01/26 04:14:39;;;;;;;45.25;26.55;;;;;;;0.37;93.39;98908.52;1644278;85;21218;-68
2021/01/26 04:17:10;;;;;;;52.75;26.57;;;;;;;0.47;93.11;98920.66;1622765;86;21267;-68
2021/01/26 04:19:42;;;;;;;49.08;26.45;;;;;;;0.41;93.05;98930.72;1646726;86;21553;-68
2021/01/26 04:22:08;;;;;;;44.53;25.82;;;;;;;0.48;93.00;98922.77;1646828;86;21302;-68
2021/01/26 04:24:35;;;;;;;42.53;23.65;;;;;;;0.49;92.83;98921.83;1646942;86;21207;-68
2021/01/26 04:27:04;;;;;;;46.33;25.77;;;;;;;0.48;92.59;98913.67;1644354;86;21649;-68
2021/01/26 04:29:30;;;;;;;41.60;23.52;;;;;;;0.43;92.44;98917.13;1645716;86;21222;-68
2021/01/26 04:31:56;;;;;;;47.40;25.87;;;;;;;0.47;92.50;98925.03;1644859;86;22128;-68
2021/01/26 04:34:22;;;;;;;47.00;26.17;;;;;;;0.46;92.68;98920.30;1655663;85;20971;-68
2021/01/26 04:36:48;;;;;;;46.58;25.23;;;;;;;0.50;92.60;98926.09;1667078;86;21225;-68
2021/01/26 04:39:13;;;;;;;41.67;24.40;;;;;;;0.47;92.72;98921.14;1667822;85;23908;-68
2021/01/26 04:41:47;;;;;;;45.37;26.43;;;;;;;0.51;92.29;98919.92;1666722;86;21050;-68
2021/01/26 04:45:00;;;;;;;40.33;23.35;;;;;;;0.52;92.53;98922.89;1667251;84;21257;-68
2021/01/26 04:47:40;;;;;;;44.38;24.47;;;;;;;0.37;92.66;98937.09;1666114;85;21224;-67
2021/01/26 04:50:53;;;;;;;46.30;25.23;;;;;;;0.56;92.21;98924.30;1666377;84;21209;-66
2021/01/26 04:53:41;;;;;;;44.15;23.85;;;;;;;0.49;92.28;98925.73;1666730;85;21169;-68
2021/01/26 04:56:38;;;;;;;46.63;24.37;;;;;;;0.40;92.42;98914.77;1667345;84;22570;-68
2021/01/26 04:59:34;;;;;;;40.75;22.60;;;;;;;0.42;92.76;98940.14;1667023;86;21189;-68
2021/01/26 05:02:23;;;;;;;45.45;24.65;;;;;;;0.40;92.68;98914.28;1606950;86;21197;-68
2021/01/26 05:04:55;;;;;;;41.83;22.73;;;;;;;0.37;92.66;98925.40;1667755;84;21706;-68
2021/01/26 05:07:34;;;;;;;47.55;24.25;;;;;;;0.29;92.48;98914.32;1667323;84;21237;-68
2021/01/26 05:10:06;;;;;;;42.05;22.05;;;;;;;0.40;92.63;98922.08;1667320;86;21193;-68
2021/01/26 05:12:40;;;;;;;44.85;22.93;;;;;;;0.26;92.42;98898.50;1666673;86;21420;-68
2021/01/26 05:15:07;;;;;;;42.90;23.25;;;;;;;0.26;92.42;98898.50;1665102;85;21261;-67
2021/01/26 05:17:41;;;;;;;42.38;22.90;;;;;;;0.40;92.43;98914.77;1667250;85;21264;-68
2021/01/26 05:20:15;;;;;;;44.03;23.02;;;;;;;0.45;92.23;98925.61;1666880;86;21193;-68
2021/01/26 05:22:50;;;;;;;46.45;24.95;;;;;;;0.42;92.30;98938.84;1667364;86;21224;-67
2021/01/26 05:25:20;;;;;;;49.50;24.90;;;;;;;0.34;92.34;98927.30;1667373;85;21738;-67
2021/01/26 05:27:48;;;;;;;42.33;23.50;;;;;;;0.34;92.49;98926.00;1666503;86;21607;-67
2021/01/26 05:30:25;;;;;;;39.20;21.57;;;;;;;0.25;92.49;98946.20;1667294;85;21142;-67
2021/01/26 05:32:47;;;;;;;45.70;23.95;;;;;;;0.32;92.46;98925.28;1665596;85;21257;-68
2021/01/26 05:35:14;;;;;;;41.40;22.90;;;;;;;0.39;92.37;98931.28;1667279;85;24245;-67
2021/01/26 05:37:40;;;;;;;42.23;23.62;;;;;;;0.40;92.09;98940.74;1667468;84;21655;-67
2021/01/26 05:40:11;;;;;;;40.00;22.73;;;;;;;0.38;91.94;98937.45;1667409;86;20991;-68
2021/01/26 05:42:36;;;;;;;42.13;23.70;;;;;;;0.35;92.06;98962.69;1658821;86;21532;-67
2021/01/26 05:45:22;;;;;;;35.57;20.47;;;;;;;0.33;92.20;98945.12;1666450;86;22866;-67
2021/01/26 05:47:48;;;;;;;41.55;23.40;;;;;;;0.42;91.99;98944.88;1666678;86;21522;-67
2021/01/26 05:50:26;;;;;;;42.97;24.40;;;;;;;0.35;92.05;98954.90;1618521;86;21552;-67
2021/01/26 05:52:51;;;;;;;42.40;22.93;;;;;;;0.32;92.04;98943.45;1666178;84;21234;-69
2021/01/26 05:55:24;;;;;;;41.67;23.20;;;;;;;0.33;92.02;98959.40;1667308;85;20944;-69
2021/01/26 05:57:50;;;;;;;43.78;23.65;;;;;;;0.25;92.06;98994.23;1666143;84;21157;-69
2021/01/26 06:00:27;;;;;;;46.47;24.27;;;;;;;0.27;92.09;98955.98;1667309;84;25155;-68
2021/01/26 06:03:18;;;;;;;42.43;23.25;;;;;;;0.34;92.16;98947.23;1667506;84;25318;-68
2021/01/26 06:06:08;;;;;;;38.78;22.85;;;;;;;0.23;92.16;98958.45;1668023;85;21631;-68
2021/01/26 06:08:38;;;;;;;42.78;22.80;;;;;;;0.31;91.93;98965.20;1666878;85;21181;-69
2021/01/26 06:11:10;;;;;;;38.35;22.52;;;;;;;0.34;92.04;98961.06;1634900;86;21230;-68
2021/01/26 06:13:35;;;;;;;35.65;20.88;;;;;;;0.28;91.70;98959.39;1665787;85;21244;-66
2021/01/26 06:16:22;;;;;;;40.63;22.27;;;;;;;0.32;91.12;98973.31;1666916;85;21222;-67
2021/01/26 06:18:57;;;;;;;36.98;21.35;;;;;;;0.39;90.97;98962.45;1641897;86;48131;-69
2021/01/26 06:21:23;;;;;;;36.20;20.80;;;;;;;0.32;90.58;98965.53;1667567;85;21455;-69
2021/01/26 06:23:49;;;;;;;34.10;20.23;;;;;;;0.29;90.67;98970.96;1666108;85;21209;-68
2021/01/26 06:26:15;;;;;;;34.40;20.20;;;;;;;0.31;90.51;98982.07;1667843;85;23255;-68
2021/01/26 06:29:13;;;;;;;40.90;21.47;;;;;;;0.32;90.65;98995.87;1666906;86;21212;-68
2021/01/26 06:32:03;;;;;;;39.85;22.13;;;;;;;0.26;91.07;98981.59;1667940;84;21228;-67
2021/01/26 06:34:53;;;;;;;39.80;21.95;;;;;;;0.29;91.47;98980.05;1664617;84;21262;-68
2021/01/26 06:37:32;;;;;;;34.85;20.95;;;;;;;0.40;91.29;98982.29;1645489;85;21218;-67
2021/01/26 06:40:43;;;;;;;36.93;20.02;;;;;;;0.28;90.96;98997.89;1649086;85;21285;-67
2021/01/26 06:43:30;;;;;;;40.60;21.90;;;;;;;0.37;91.09;99024.08;1644717;85;22031;-67
2021/01/26 06:46:04;;;;;;;38.33;20.72;;;;;;;0.27;91.15;99001.42;1644218;86;21194;-66
2021/01/26 06:49:22;;;;;;;39.27;20.95;;;;;;;0.35;90.84;98995.16;1645568;86;21621;-68
2021/01/26 06:52:11;;;;;;;33.75;18.40;;;;;;;0.32;90.69;99027.84;1641145;85;21299;-66
2021/01/26 06:55:06;;;;;;;32.40;19.37;;;;;;;0.30;89.90;99032.83;1641307;85;21706;-66
2021/01/26 06:57:54;;;;;;;31.10;18.30;;;;;;;0.28;89.91;99018.66;1644533;85;21216;-68
2021/01/26 07:01:00;;;;;;;36.28;19.27;;;;;;;0.27;89.40;99004.02;1645435;85;21228;-67
2021/01/26 07:04:00;;;;;;;37.98;18.92;;;;;;;0.27;89.51;99004.02;1625336;86;21946;-68
2021/01/26 07:06:51;;;;;;;32.28;18.52;;;;;;;0.26;89.71;99024.42;1646117;85;21217;-66
2021/01/26 07:09:32;;;;;;;35.52;17.52;;;;;;;0.34;89.02;99038.12;1642735;85;21324;-66
2021/01/26 07:12:06;;;;;;;32.53;17.82;;;;;;;0.27;88.65;99059.84;1648392;85;22104;-68
2021/01/26 07:15:12;;;;;;;30.77;16.80;;;;;;;0.28;88.67;99048.52;1642234;86;21227;-66
2021/01/26 07:18:04;;;;;;;28.63;16.13;;;;;;;0.28;88.17;99044.62;1647071;85;21598;-65
2021/01/26 07:20:52;;;;;;;29.50;15.63;;;;;;;0.35;87.94;99032.80;1640210;85;21249;-67
2021/01/26 07:23:51;;;;;;;33.63;16.97;;;;;;;0.34;87.50;99029.88;1645484;85;21265;-66
2021/01/26 07:26:44;;;;;;;29.37;16.32;;;;;;;0.30;88.05;99025.85;1647793;85;23524;-69
2021/01/26 07:29:24;;;;;;;33.02;16.42;;;;;;;0.39;87.89;99032.56;1643772;85;21260;-66
2021/01/26 07:32:00;;;;;;;33.10;16.65;;;;;;;0.30;87.25;99032.34;1647222;85;21307;-67
2021/01/26 07:34:42;;;;;;;32.63;17.13;;;;;;;0.29;87.11;99013.80;1644071;85;21253;-66
2021/01/26 07:37:25;;;;;;;31.65;17.48;;;;;;;0.28;88.00;99036.84;1645758;85;21241;-67
2021/01/26 07:40:24;;;;;;;35.92;18.80;;;;;;;0.28;88.11;99036.84;1643839;85;21677;-67
2021/01/26 07:43:01;;;;;;;35.33;18.37;;;;;;;0.28;88.11;99036.84;1643689;85;21620;-66
2021/01/26 07:45:37;;;;;;;30.65;14.05;;;;;;;0.31;88.62;99041.80;1627853;85;21198;-66
2021/01/26 07:48:10;;;;;;;40.88;19.67;;;;;;;0.31;89.04;99035.30;1642308;85;21259;-66
2021/01/26 07:50:41;;;;;;;42.05;19.75;;;;;;;0.31;89.13;99044.84;1643618;85;21213;-67
2021/01/26 07:53:33;;;;;;;43.68;20.27;;;;;;;0.25;89.45;99031.88;1643832;85;22433;-67
2021/01/26 07:56:34;;;;;;;42.25;21.33;;;;;;;0.30;89.39;99029.75;1649646;85;21658;-67
2021/01/26 07:59:07;;;;;;;40.25;19.45;;;;;;;0.30;89.59;99042.73;1650034;85;22440;-66
2021/01/26 08:01:44;;;;;;;46.23;20.62;;;;;;;0.35;88.61;99060.07;1644450;85;21250;-67
2021/01/26 08:04:10;;;;;;;46.53;19.80;;;;;;;0.22;88.74;99057.23;1642834;85;21287;-68
2021/01/26 08:06:42;;;;;;;43.27;20.33;;;;;;;0.19;88.45;99040.14;1641916;86;21144;-67
2021/01/26 08:09:23;;;;;;;37.17;18.87;;;;;;;0.31;88.54;99052.63;1644377;85;21225;-68
2021/01/26 08:12:10;;;;;;;44.55;18.95;;;;;;;0.25;88.09;99035.77;1669586;84;21222;-68
2021/01/26 08:14:47;;;;;;;46.68;19.95;;;;;;;0.19;88.03;99058.31;1640275;85;21298;-68
2021/01/26 08:17:19;;;;;;;50.98;20.77;;;;;;;0.12;88.31;99062.30;1646268;85;21278;-68
2021/01/26 08:19:47;;;;;;;39.40;17.75;;;;;;;0.15;88.60;99054.28;1645998;85;21553;-66
2021/01/26 08:22:21;;;;;;;39.35;18.80;;;;;;;0.11;88.12;99035.98;1645728;86;21444;-68
2021/01/26 08:24:47;;;;;;;38.90;18.52;;;;;;;0.15;88.26;99056.40;1641876;86;21222;-69
2021/01/26 08:27:30;;;;;;;41.60;19.27;;;;;;;0.18;88.51;99074.82;1645203;86;21240;-69
2021/01/26 08:30:03;;;;;;;36.13;17.23;;;;;;;0.26;88.49;99047.80;1643573;86;21225;-69
2021/01/26 08:32:34;;;;;;;46.20;20.15;;;;;;;0.26;88.31;99056.87;1645076;86;21286;-68
2021/01/26 08:35:07;;;;;;;39.48;19.00;;;;;;;0.27;88.46;99052.05;1642783;85;21211;-70
2021/01/26 08:37:46;;;;;;;43.38;19.60;;;;;;;0.30;88.52;99062.20;1639457;87;21146;-68
2021/01/26 08:40:22;;;;;;;44.03;19.17;;;;;;;0.25;88.79;99070.83;1639824;85;21260;-68
2021/01/26 08:42:52;;;;;;;44.93;21.07;;;;;;;0.24;89.13;99088.64;1592192;87;21204;-68
2021/01/26 08:45:29;;;;;;;45.38;20.62;;;;;;;0.31;89.49;99059.12;1637476;87;21415;-68
2021/01/26 08:48:03;;;;;;;45.08;20.00;;;;;;;0.32;89.48;99071.98;1639685;87;21817;-68
2021/01/26 08:53:34;;;;;;;52.00;22.77;;;;;;;0.38;89.55;99059.50;1559841;91;21221;-68
2021/01/26 08:56:25;;;;;;;47.93;23.50;;;;;;;0.37;89.73;99079.91;1617787;88;21644;-67
2021/01/26 08:58:56;;;;;;;46.92;22.15;;;;;;;0.32;89.66;99062.91;1600454;88;21259;-69
2021/01/26 09:01:38;;;;;;;51.30;23.73;;;;;;;0.46;89.38;99061.03;1594255;89;21204;-68
2021/01/26 09:04:21;;;;;;;43.38;21.30;;;;;;;0.46;89.31;99054.53;1560493;91;21252;-68
2021/01/26 09:06:48;;;;;;;45.90;21.93;;;;;;;0.56;88.87;99055.48;1594905;89;21227;-68
2021/01/26 09:09:35;;;;;;;47.05;21.68;;;;;;;0.58;88.21;99057.48;1591817;89;21268;-68
2021/01/26 09:12:03;;;;;;;47.03;20.95;;;;;;;0.52;87.89;99054.05;1593438;89;22154;-69
2021/01/26 09:14:46;;;;;;;45.03;21.87;;;;;;;0.62;87.54;99064.09;1573972;89;21252;-68
2021/01/26 09:17:23;;;;;;;45.50;21.55;;;;;;;0.59;87.51;99047.45;1560773;91;21713;-67
2021/01/26 09:19:58;;;;;;;46.90;22.70;;;;;;;0.61;87.33;99080.63;1623813;88;21229;-67
2021/01/26 09:22:29;;;;;;;47.53;21.85;;;;;;;0.63;87.30;99069.63;1620651;88;21232;-68
2021/01/26 09:25:12;;;;;;;40.75;20.32;;;;;;;0.73;87.21;99059.81;1619523;88;21975;-68
2021/01/26 09:27:38;;;;;;;44.70;20.62;;;;;;;0.82;86.77;99070.79;1621964;87;21245;-68
2021/01/26 09:30:18;;;;;;;39.27;19.03;;;;;;;0.76;86.26;99075.16;1619645;88;20968;-67
2021/01/26 09:32:49;;;;;;;38.58;18.87;;;;;;;0.80;86.39;99080.48;1621571;88;21234;-67
2021/01/26 09:35:32;;;;;;;40.48;19.02;;;;;;;0.75;85.87;99086.53;1606833;88;21830;-70
2021/01/26 09:38:23;;;;;;;45.23;20.23;;;;;;;0.88;85.56;99102.80;1620793;86;21655;-66
2021/01/26 09:41:01;;;;;;;38.50;18.80;;;;;;;0.82;85.48;99085.90;1620953;86;21176;-67
2021/01/26 09:43:36;;;;;;;44.53;20.88;;;;;;;0.87;85.31;99086.84;1621909;86;21270;-67
2021/01/26 09:46:05;;;;;;;42.80;19.73;;;;;;;0.85;85.15;99092.64;1619928;87;21240;-67
2021/01/26 09:48:45;;;;;;;38.05;18.77;;;;;;;0.84;84.70;99102.67;1619153;87;21656;-66
2021/01/26 09:51:25;;;;;;;40.60;19.67;;;;;;;0.92;84.72;99097.72;1621758;86;21534;-67
2021/01/26 09:54:06;;;;;;;46.15;21.07;;;;;;;0.96;84.58;99099.11;1623804;87;21255;-68
2021/01/26 09:56:38;;;;;;;39.45;20.17;;;;;;;0.92;84.85;99109.87;1624997;87;21271;-67
2021/01/26 09:59:11;;;;;;;48.92;22.95;;;;;;;0.94;84.97;99117.91;1619732;87;21943;-66
2021/01/26 10:01:36;;;;;;;46.58;21.57;;;;;;;0.95;85.64;99105.28;1626700;86;21248;-68
2021/01/26 10:04:04;;;;;;;45.13;22.67;;;;;;;0.97;85.67;99109.87;1603533;87;21194;-66
2021/01/26 10:06:30;;;;;;;45.63;22.90;;;;;;;0.95;85.85;99103.13;1625853;87;21223;-67
2021/01/26 10:08:56;;;;;;;41.43;22.93;;;;;;;0.97;86.11;99103.38;1625250;87;21193;-67
2021/01/26 10:11:29;;;;;;;49.87;22.60;;;;;;;1.04;85.84;99117.55;1605776;87;28625;-67
2021/01/26 10:14:22;;;;;;;50.23;23.47;;;;;;;1.01;85.65;99097.00;1627649;87;21315;-67
2021/01/26 10:16:59;;;;;;;42.03;22.20;;;;;;;1.08;85.75;99103.34;1626238;87;21797;-67
2021/01/26 10:19:29;;;;;;;39.67;18.17;;;;;;;1.07;84.70;99116.02;1626785;87;21809;-67
2021/01/26 10:21:57;;;;;;;34.75;19.75;;;;;;;1.00;83.66;99140.01;1627917;87;21268;-66
2021/01/26 10:24:29;;;;;;;36.00;20.30;;;;;;;1.02;84.20;99105.12;1600723;87;21249;-66
2021/01/26 10:27:23;;;;;;;38.13;18.70;;;;;;;1.07;84.00;99119.91;1629926;86;21212;-68
2021/01/26 10:29:49;;;;;;;36.35;18.27;;;;;;;1.13;83.63;99114.68;1536707;92;21266;-68
2021/01/26 10:32:40;;;;;;;34.95;17.90;;;;;;;1.15;83.67;99115.86;1514182;93;21294;-67
2021/01/26 10:35:24;;;;;;;28.27;16.02;;;;;;;1.17;83.27;99125.69;1565998;87;21273;-68
2021/01/26 10:37:50;;;;;;;34.75;17.05;;;;;;;1.20;83.27;99129.34;1614225;87;21755;-67
2021/01/26 10:40:32;;;;;;;27.17;17.10;;;;;;;1.23;82.86;99127.31;1614807;87;25130;-67
2021/01/26 10:43:08;;;;;;;31.50;17.60;;;;;;;1.28;82.66;99115.73;1613357;87;21556;-67
2021/01/26 10:45:41;;;;;;;27.90;17.07;;;;;;;1.28;82.50;99116.55;1610643;87;22436;-67
2021/01/26 10:48:14;;;;;;;31.25;17.35;;;;;;;1.21;82.12;99141.38;1613409;87;21203;-66
2021/01/26 10:50:40;;;;;;;29.85;17.25;;;;;;;1.19;82.65;99136.78;1614358;87;21265;-67
2021/01/26 10:53:06;;;;;;;28.17;16.27;;;;;;;1.15;82.98;99128.86;1612750;87;27179;-67
2021/01/26 10:55:33;;;;;;;25.97;16.10;;;;;;;1.17;82.99;99136.91;1612716;87;21355;-67
2021/01/26 10:57:59;;;;;;;32.63;18.25;;;;;;;1.18;83.38;99132.52;1611975;87;21218;-67
2021/01/26 11:00:28;;;;;;;30.70;18.23;;;;;;;1.07;83.92;99114.71;1612190;87;21059;-68
2021/01/26 11:02:54;;;;;;;36.13;20.02;;;;;;;1.13;83.87;99115.16;1611950;88;21213;-66
2021/01/26 11:05:22;;;;;;;39.55;20.52;;;;;;;1.08;84.40;99113.74;1611526;87;25264;-68
2021/01/26 11:07:49;;;;;;;36.42;19.98;;;;;;;1.14;84.27;99120.24;1587431;88;21290;-68
2021/01/26 11:10:15;;;;;;;37.70;21.90;;;;;;;1.03;84.37;99131.48;1611148;87;21277;-67
2021/01/26 11:12:41;;;;;;;35.77;20.83;;;;;;;1.04;84.83;99155.25;1612547;87;21005;-66
2021/01/26 11:15:12;;;;;;;37.53;20.55;;;;;;;1.12;84.94;99136.91;1610892;88;21288;-66
2021/01/26 11:17:38;;;;;;;39.03;20.90;;;;;;;1.05;84.84;99137.38;1612252;87;21608;-67
2021/01/26 11:20:06;;;;;;;36.37;21.77;;;;;;;1.03;84.77;99125.47;1612399;87;21290;-67
2021/01/26 11:22:32;;;;;;;42.33;21.20;;;;;;;0.99;84.93;99140.95;1612952;87;21950;-66
2021/01/26 11:24:58;;;;;;;39.23;21.62;;;;;;;0.93;85.51;99129.24;1613185;87;21310;-67
2021/01/26 11:27:24;;;;;;;42.90;22.40;;;;;;;0.93;85.32;99138.34;1612826;88;27868;-67
2021/01/26 11:29:49;;;;;;;38.37;21.87;;;;;;;0.89;85.31;99149.94;1612180;88;26202;-67
2021/01/26 11:32:17;;;;;;;33.60;20.13;;;;;;;0.97;85.44;99118.97;1612291;88;21343;-68
2021/01/26 11:34:45;;;;;;;39.60;20.43;;;;;;;1.00;84.97;99118.73;1611942;87;21523;-67
2021/01/26 11:37:11;;;;;;;38.48;21.97;;;;;;;0.99;85.15;99142.25;1612698;88;21680;-67
2021/01/26 11:39:39;;;;;;;41.83;21.20;;;;;;;1.02;85.50;99107.73;1612804;88;27265;-68
2021/01/26 11:42:06;;;;;;;37.40;20.30;;;;;;;1.04;85.36;99114.95;1613031;88;21222;-69
2021/01/26 11:44:32;;;;;;;36.95;19.07;;;;;;;0.99;85.29;99122.27;1613196;87;22269;-68
2021/01/26 11:46:57;;;;;;;36.73;20.40;;;;;;;1.03;85.19;99112.47;1612640;88;21731;-69
2021/01/26 11:49:23;;;;;;;36.90;20.77;;;;;;;0.98;84.84;99144.48;1612229;88;20985;-69
2021/01/26 11:51:49;;;;;;;38.75;20.32;;;;;;;1.00;84.71;99141.31;1614614;87;27795;-66
2021/01/26 11:54:14;;;;;;;36.27;20.10;;;;;;;0.99;85.00;99123.56;1619985;87;26226;-67
2021/01/26 11:56:40;;;;;;;31.80;18.93;;;;;;;0.96;84.78;99138.10;1615465;87;21301;-68
2021/01/26 11:59:06;;;;;;;35.93;18.33;;;;;;;1.04;84.46;99118.85;1616078;88;21776;-68
2021/01/26 12:01:32;;;;;;;33.20;18.30;;;;;;;1.08;84.36;99131.94;1619042;88;20983;-69
2021/01/26 12:03:57;;;;;;;31.20;18.33;;;;;;;1.11;84.46;99115.28;1618768;88;24002;-69